• Join FlightAware (Why Join?)
  • Login
  • US Flag 
12:20AM EDT


 

Airport Tracker/Info


-or-


 

Live Flight TrackerFlight Track Log ✈ UAL4335 ✈ 02-Nov-2013 ✈ KORD - KCVG

Flight Track Log - Related Links

Times and Time Zones

All times are in EDT time to prevent confusion due to time zone crossing. See the UAL4335 flight status page for this flight to view local times or setup timezone preferences in your user account.

Time Position Orientation Groundspeed Altitude Reporting Facility
EDT Latitude Longitude Course Direction KTS MPH feet Rate Location/Type
09:15AM 41.9167 -87.9000 166° South 191 220 3,400  Level Chicago TRACON
09:16AM 41.8667 -87.8833 166° South 224 258 5,700 1,980 Climbing Chicago TRACON
09:16AM 41.8239 -87.8547 154° Southeast 240 276 7,000 2,160 Climbing Chicago Center
09:17AM 41.7519 -87.8028 152° Southeast 282 325 9,700 2,760 Climbing Chicago Center
09:18AM 41.6622 -87.7392 152° Southeast 302 348 12,700 2,040 Climbing Chicago Center
09:19AM 41.5792 -87.6811 152° Southeast 330 380 14,000 1,260 Climbing Chicago Center
09:20AM 41.4867 -87.6161 152° Southeast 367 422 15,300 1,440 Climbing Chicago Center
09:21AM 41.3881 -87.5683 160° South 381 438 17,000 1,680 Climbing Chicago Center
09:22AM 41.2822 -87.5483 172° South 380 437 18,800 1,560 Climbing Chicago Center
09:24AM 41.1783 -87.5131 166° South 391 450 20,200 1,320 Climbing Chicago Center
09:25AM 41.0850 -87.4325 147° Southeast 399 459 21,600 1,260 Climbing Chicago Center
09:26AM 40.9881 -87.3511 148° Southeast 410 472 22,900 1,260 Climbing Chicago Center
09:27AM 40.8911 -87.2694 148° Southeast 413 475 24,300 1,020 Climbing Chicago Center
09:28AM 40.7725 -87.1675 147° Southeast 425 489 25,000 300 Climbing Chicago Center
09:29AM 40.6750 -87.0864 148° Southeast 443 510 25,000 -180 Level Chicago Center
09:30AM 40.5667 -86.9936 147° Southeast 462 532 24,700 -600 Descending Chicago Center
09:31AM 40.4569 -86.9033 148° Southeast 465 535 23,800 -840 Descending Chicago Center
09:32AM 40.3544 -86.8172 147° Southeast 444 511 23,000 -420 Descending Chicago Center
09:33AM 40.2342 -86.7153 147° Southeast 431 496 23,000  Level Chicago Center
09:34AM 40.1294 -86.6297 148° Southeast 443 510 23,000  Level Chicago Center
09:35AM 40.0225 -86.5400 147° Southeast 449 517 23,000  Level Indianapolis Center
09:36AM 39.9169 -86.4522 147° Southeast 452 520 23,000 -840 Level Indianapolis Center
09:37AM 39.8200 -86.3597 144° Southeast 435 501 21,300 -2,040 Descending Indianapolis Center
09:38AM 39.7639 -86.2175 117° Southeast 424 488 18,900 -2,400 Descending Indianapolis Center
09:39AM 39.7172 -86.0781 113° Southeast 416 479 16,400 -2,220 Descending Indianapolis Center
09:40AM 39.6725 -85.9450 114° Southeast 406 467 14,400 -1,200 Descending Indianapolis Center
09:41AM 39.6292 -85.8164 114° Southeast 394 453 14,000 -840 Descending Indianapolis Center
09:42AM 39.5856 -85.6875 114° Southeast 392 451 12,700 -1,380 Descending Indianapolis Center
09:43AM 39.5422 -85.5594 114° Southeast 390 449 11,200 -900 Descending Indianapolis Center
09:44AM 39.4936 -85.4383 117° Southeast 383 441 10,900 -180 Descending Indianapolis Center
09:45AM 39.4200 -85.3061 126° Southeast 378 435 10,900 -540 Level Indianapolis Center
09:46AM 39.4172 -85.1900 92° East 329 379 9,900 -1,440 Descending Indianapolis Center
09:47AM 39.4203 -85.0847 88° East 299 344 8,000 -1,860 Descending Indianapolis Center
09:48AM 39.4211 -84.9819 89° East 291 335 6,100 -1,500 Descending Indianapolis Center
09:49AM 39.4233 -84.8717 88° East 280 322 5,000 -540 Descending Indianapolis Center
09:50AM 39.4089 -84.7756 101° East 286 329 5,000 -300 Level Indianapolis Center
09:51AM 39.3467 -84.7186 145° Southeast 287 330 4,500 -780 Descending Indianapolis Center
09:52AM 39.2908 -84.6681 145° Southeast 280 322 3,500 -600 Descending Indianapolis Center
09:54AM 39.2000 -84.6667 179° South 199 229 3,000 -480 Descending Cincinnati TRACON
09:55AM 39.1333 -84.6667 180° South 186 214 2,400 -720 Descending Cincinnati TRACON
09:56AM 39.1000 -84.6667 180° South 133 153 1,500 -840 Descending Cincinnati TRACON